sensor_id;sensor_type;location;lat;lon;timestamp;temperature;humidity
41437;DHT22;27178;49.460;10.850;2022-08-25T00:01:57;25.30;56.10
41437;DHT22;27178;49.460;10.850;2022-08-25T00:04:30;25.30;56.20
41437;DHT22;27178;49.460;10.850;2022-08-25T00:07:01;25.20;56.10
41437;DHT22;27178;49.460;10.850;2022-08-25T00:09:31;25.20;56.30
41437;DHT22;27178;49.460;10.850;2022-08-25T00:12:02;25.20;56.30
41437;DHT22;27178;49.460;10.850;2022-08-25T00:14:34;25.20;56.30
41437;DHT22;27178;49.460;10.850;2022-08-25T00:17:04;25.10;56.30
41437;DHT22;27178;49.460;10.850;2022-08-25T00:19:35;25.10;56.50
41437;DHT22;27178;49.460;10.850;2022-08-25T00:22:06;25.00;56.60
41437;DHT22;27178;49.460;10.850;2022-08-25T00:24:35;25.00;56.60
41437;DHT22;27178;49.460;10.850;2022-08-25T00:27:04;24.90;56.60
41437;DHT22;27178;49.460;10.850;2022-08-25T00:29:33;24.90;56.80
41437;DHT22;27178;49.460;10.850;2022-08-25T00:32:04;24.90;56.90
41437;DHT22;27178;49.460;10.850;2022-08-25T00:34:36;24.90;56.90
41437;DHT22;27178;49.460;10.850;2022-08-25T00:37:07;24.90;57.20
41437;DHT22;27178;49.460;10.850;2022-08-25T00:39:37;24.80;57.10
41437;DHT22;27178;49.460;10.850;2022-08-25T00:42:07;24.90;57.20
41437;DHT22;27178;49.460;10.850;2022-08-25T00:44:42;24.80;57.10
41437;DHT22;27178;49.460;10.850;2022-08-25T00:47:11;24.80;57.20
41437;DHT22;27178;49.460;10.850;2022-08-25T00:49:44;24.80;57.20
41437;DHT22;27178;49.460;10.850;2022-08-25T00:52:15;24.70;57.40
41437;DHT22;27178;49.460;10.850;2022-08-25T00:54:48;24.70;57.60
41437;DHT22;27178;49.460;10.850;2022-08-25T00:57:22;24.60;57.70
41437;DHT22;27178;49.460;10.850;2022-08-25T01:00:03;24.60;57.70
41437;DHT22;27178;49.460;10.850;2022-08-25T01:02:32;24.60;57.70
41437;DHT22;27178;49.460;10.850;2022-08-25T01:05:03;24.60;57.70
41437;DHT22;27178;49.460;10.850;2022-08-25T01:07:32;24.60;57.90
41437;DHT22;27178;49.460;10.850;2022-08-25T01:10:00;24.50;57.90
41437;DHT22;27178;49.460;10.850;2022-08-25T01:12:29;24.50;57.90
41437;DHT22;27178;49.460;10.850;2022-08-25T01:14:58;24.50;57.90
41437;DHT22;27178;49.460;10.850;2022-08-25T01:17:33;24.50;58.00
41437;DHT22;27178;49.460;10.850;2022-08-25T01:20:04;24.50;58.20
41437;DHT22;27178;49.460;10.850;2022-08-25T01:22:33;24.50;58.10
41437;DHT22;27178;49.460;10.850;2022-08-25T01:25:06;24.50;58.20
41437;DHT22;27178;49.460;10.850;2022-08-25T01:27:40;24.50;58.30
41437;DHT22;27178;49.460;10.850;2022-08-25T01:30:09;24.50;58.20
41437;DHT22;27178;49.460;10.850;2022-08-25T01:32:38;24.40;58.30
41437;DHT22;27178;49.460;10.850;2022-08-25T01:35:07;24.40;58.30
41437;DHT22;27178;49.460;10.850;2022-08-25T01:37:37;24.40;58.40
41437;DHT22;27178;49.460;10.850;2022-08-25T01:40:06;24.30;58.40
41437;DHT22;27178;49.460;10.850;2022-08-25T01:42:42;24.40;58.50
41437;DHT22;27178;49.460;10.850;2022-08-25T01:45:14;24.30;58.60
41437;DHT22;27178;49.460;10.850;2022-08-25T01:47:42;24.30;58.60
41437;DHT22;27178;49.460;10.850;2022-08-25T01:50:11;24.30;58.60
41437;DHT22;27178;49.460;10.850;2022-08-25T01:52:50;24.20;58.70
41437;DHT22;27178;49.460;10.850;2022-08-25T01:55:18;24.30;59.00
41437;DHT22;27178;49.460;10.850;2022-08-25T01:57:47;24.20;58.70
41437;DHT22;27178;49.460;10.850;2022-08-25T02:00:17;24.20;58.70
41437;DHT22;27178;49.460;10.850;2022-08-25T02:02:46;24.20;58.90
41437;DHT22;27178;49.460;10.850;2022-08-25T02:05:19;24.20;58.90
41437;DHT22;27178;49.460;10.850;2022-08-25T02:07:50;24.20;58.90
41437;DHT22;27178;49.460;10.850;2022-08-25T02:10:19;24.10;59.10
41437;DHT22;27178;49.460;10.850;2022-08-25T02:12:49;24.10;59.10
41437;DHT22;27178;49.460;10.850;2022-08-25T02:15:20;24.10;59.80
41437;DHT22;27178;49.460;10.850;2022-08-25T02:17:48;24.10;59.30
41437;DHT22;27178;49.460;10.850;2022-08-25T02:20:16;24.10;59.30
41437;DHT22;27178;49.460;10.850;2022-08-25T02:22:45;24.10;59.30
41437;DHT22;27178;49.460;10.850;2022-08-25T02:25:24;24.10;59.30
41437;DHT22;27178;49.460;10.850;2022-08-25T02:27:52;24.00;59.40
41437;DHT22;27178;49.460;10.850;2022-08-25T02:30:21;24.00;59.30
41437;DHT22;27178;49.460;10.850;2022-08-25T02:32:50;24.00;59.40
41437;DHT22;27178;49.460;10.850;2022-08-25T02:35:18;23.90;59.30
41437;DHT22;27178;49.460;10.850;2022-08-25T02:37:47;23.90;59.40
41437;DHT22;27178;49.460;10.850;2022-08-25T02:40:20;23.90;59.50
41437;DHT22;27178;49.460;10.850;2022-08-25T02:42:50;23.80;59.50
41437;DHT22;27178;49.460;10.850;2022-08-25T02:45:18;23.80;59.70
41437;DHT22;27178;49.460;10.850;2022-08-25T02:47:47;23.80;59.80
41437;DHT22;27178;49.460;10.850;2022-08-25T02:50:15;23.70;59.90
41437;DHT22;27178;49.460;10.850;2022-08-25T02:52:44;23.70;59.90
41437;DHT22;27178;49.460;10.850;2022-08-25T02:55:12;23.70;60.00
41437;DHT22;27178;49.460;10.850;2022-08-25T02:57:40;23.70;60.00
41437;DHT22;27178;49.460;10.850;2022-08-25T03:00:13;23.70;60.10
41437;DHT22;27178;49.460;10.850;2022-08-25T03:02:42;23.70;60.30
41437;DHT22;27178;49.460;10.850;2022-08-25T03:05:12;23.70;60.30
41437;DHT22;27178;49.460;10.850;2022-08-25T03:07:40;23.60;60.20
41437;DHT22;27178;49.460;10.850;2022-08-25T03:10:14;23.70;60.30
41437;DHT22;27178;49.460;10.850;2022-08-25T03:12:42;23.60;60.40
41437;DHT22;27178;49.460;10.850;2022-08-25T03:15:14;23.60;60.40
41437;DHT22;27178;49.460;10.850;2022-08-25T03:17:44;23.60;60.60
41437;DHT22;27178;49.460;10.850;2022-08-25T03:20:13;23.60;60.50
41437;DHT22;27178;49.460;10.850;2022-08-25T03:22:41;23.60;60.50
41437;DHT22;27178;49.460;10.850;2022-08-25T03:25:10;23.60;60.50
41437;DHT22;27178;49.460;10.850;2022-08-25T03:27:55;23.60;60.50
41437;DHT22;27178;49.460;10.850;2022-08-25T03:30:27;23.60;60.50
41437;DHT22;27178;49.460;10.850;2022-08-25T03:32:56;23.50;60.50
41437;DHT22;27178;49.460;10.850;2022-08-25T03:35:24;23.50;60.50
41437;DHT22;27178;49.460;10.850;2022-08-25T03:37:54;23.50;60.60
41437;DHT22;27178;49.460;10.850;2022-08-25T03:40:23;23.50;60.70
41437;DHT22;27178;49.460;10.850;2022-08-25T03:42:52;23.40;60.60
41437;DHT22;27178;49.460;10.850;2022-08-25T03:45:22;23.40;60.70
41437;DHT22;27178;49.460;10.850;2022-08-25T03:47:52;23.40;60.80
41437;DHT22;27178;49.460;10.850;2022-08-25T03:50:21;23.30;61.00
41437;DHT22;27178;49.460;10.850;2022-08-25T03:52:51;23.30;61.10
41437;DHT22;27178;49.460;10.850;2022-08-25T03:55:21;23.30;61.10
41437;DHT22;27178;49.460;10.850;2022-08-25T03:57:50;23.30;61.40
41437;DHT22;27178;49.460;10.850;2022-08-25T04:00:20;23.30;61.50
41437;DHT22;27178;49.460;10.850;2022-08-25T04:02:48;23.20;61.60
41437;DHT22;27178;49.460;10.850;2022-08-25T04:05:18;23.20;61.60
41437;DHT22;27178;49.460;10.850;2022-08-25T04:07:47;23.20;61.90
41437;DHT22;27178;49.460;10.850;2022-08-25T04:10:15;23.20;61.90
41437;DHT22;27178;49.460;10.850;2022-08-25T04:12:43;23.20;62.00
41437;DHT22;27178;49.460;10.850;2022-08-25T04:15:13;23.20;62.00
41437;DHT22;27178;49.460;10.850;2022-08-25T04:17:41;23.20;62.10
41437;DHT22;27178;49.460;10.850;2022-08-25T04:20:11;23.20;62.10
41437;DHT22;27178;49.460;10.850;2022-08-25T04:22:41;23.20;61.80
41437;DHT22;27178;49.460;10.850;2022-08-25T04:25:11;23.20;61.90
41437;DHT22;27178;49.460;10.850;2022-08-25T04:27:40;23.20;62.10
41437;DHT22;27178;49.460;10.850;2022-08-25T04:30:09;23.10;62.20
41437;DHT22;27178;49.460;10.850;2022-08-25T04:32:38;23.10;62.50
41437;DHT22;27178;49.460;10.850;2022-08-25T04:35:07;23.10;62.50
41437;DHT22;27178;49.460;10.850;2022-08-25T04:37:35;23.10;62.60
41437;DHT22;27178;49.460;10.850;2022-08-25T04:40:06;23.10;62.70
41437;DHT22;27178;49.460;10.850;2022-08-25T04:42:35;23.10;62.90
41437;DHT22;27178;49.460;10.850;2022-08-25T04:45:05;23.10;62.70
41437;DHT22;27178;49.460;10.850;2022-08-25T04:47:36;23.10;62.70
41437;DHT22;27178;49.460;10.850;2022-08-25T04:50:05;23.10;62.90
41437;DHT22;27178;49.460;10.850;2022-08-25T04:52:34;23.10;62.80
41437;DHT22;27178;49.460;10.850;2022-08-25T04:55:04;23.20;62.80
41437;DHT22;27178;49.460;10.850;2022-08-25T04:57:33;23.20;62.90
41437;DHT22;27178;49.460;10.850;2022-08-25T05:00:03;23.10;62.80
41437;DHT22;27178;49.460;10.850;2022-08-25T05:02:32;23.10;62.90
41437;DHT22;27178;49.460;10.850;2022-08-25T05:05:00;23.10;62.90
41437;DHT22;27178;49.460;10.850;2022-08-25T05:07:32;23.10;62.90
41437;DHT22;27178;49.460;10.850;2022-08-25T05:10:01;23.10;62.90
41437;DHT22;27178;49.460;10.850;2022-08-25T05:12:34;23.10;63.00
41437;DHT22;27178;49.460;10.850;2022-08-25T05:15:03;23.10;63.10
41437;DHT22;27178;49.460;10.850;2022-08-25T05:17:52;23.10;63.10
41437;DHT22;27178;49.460;10.850;2022-08-25T05:20:22;23.20;63.10
41437;DHT22;27178;49.460;10.850;2022-08-25T05:22:50;23.20;63.30
41437;DHT22;27178;49.460;10.850;2022-08-25T05:25:19;23.20;63.30
41437;DHT22;27178;49.460;10.850;2022-08-25T05:27:50;23.20;63.40
41437;DHT22;27178;49.460;10.850;2022-08-25T05:30:18;23.20;63.50
41437;DHT22;27178;49.460;10.850;2022-08-25T05:32:47;23.10;63.50
41437;DHT22;27178;49.460;10.850;2022-08-25T05:35:15;23.10;63.50
41437;DHT22;27178;49.460;10.850;2022-08-25T05:37:45;23.10;63.60
41437;DHT22;27178;49.460;10.850;2022-08-25T05:40:14;23.10;63.90
41437;DHT22;27178;49.460;10.850;2022-08-25T05:42:42;23.10;64.00
41437;DHT22;27178;49.460;10.850;2022-08-25T05:45:12;23.10;64.10
41437;DHT22;27178;49.460;10.850;2022-08-25T05:47:46;23.10;64.30
41437;DHT22;27178;49.460;10.850;2022-08-25T05:50:14;23.10;64.40
41437;DHT22;27178;49.460;10.850;2022-08-25T05:52:43;23.10;64.40
41437;DHT22;27178;49.460;10.850;2022-08-25T05:55:11;23.10;64.50
41437;DHT22;27178;49.460;10.850;2022-08-25T05:57:41;23.10;64.70
41437;DHT22;27178;49.460;10.850;2022-08-25T06:00:12;23.10;64.70
41437;DHT22;27178;49.460;10.850;2022-08-25T06:02:40;23.10;64.80
41437;DHT22;27178;49.460;10.850;2022-08-25T06:05:11;23.10;64.80
41437;DHT22;27178;49.460;10.850;2022-08-25T06:07:40;23.20;64.90
41437;DHT22;27178;49.460;10.850;2022-08-25T06:10:09;23.20;64.90
41437;DHT22;27178;49.460;10.850;2022-08-25T06:12:40;23.20;64.90
41437;DHT22;27178;49.460;10.850;2022-08-25T06:15:14;23.20;64.90
41437;DHT22;27178;49.460;10.850;2022-08-25T06:17:44;23.20;65.10
41437;DHT22;27178;49.460;10.850;2022-08-25T06:20:14;23.20;64.90
41437;DHT22;27178;49.460;10.850;2022-08-25T06:22:43;23.30;65.00
41437;DHT22;27178;49.460;10.850;2022-08-25T06:25:13;23.30;65.00
41437;DHT22;27178;49.460;10.850;2022-08-25T06:27:42;23.30;65.00
41437;DHT22;27178;49.460;10.850;2022-08-25T06:30:15;23.30;65.00
41437;DHT22;27178;49.460;10.850;2022-08-25T06:32:50;23.30;65.50
41437;DHT22;27178;49.460;10.850;2022-08-25T06:35:19;23.30;64.90
41437;DHT22;27178;49.460;10.850;2022-08-25T06:37:47;23.40;65.10
41437;DHT22;27178;49.460;10.850;2022-08-25T06:40:15;23.40;65.10
41437;DHT22;27178;49.460;10.850;2022-08-25T06:42:46;23.40;65.10
41437;DHT22;27178;49.460;10.850;2022-08-25T06:45:17;23.40;65.30
41437;DHT22;27178;49.460;10.850;2022-08-25T06:47:45;23.50;65.20
41437;DHT22;27178;49.460;10.850;2022-08-25T06:50:14;23.50;65.30
41437;DHT22;27178;49.460;10.850;2022-08-25T06:52:42;23.50;65.40
41437;DHT22;27178;49.460;10.850;2022-08-25T06:55:11;23.50;65.40
41437;DHT22;27178;49.460;10.850;2022-08-25T06:57:39;23.60;65.60
41437;DHT22;27178;49.460;10.850;2022-08-25T07:00:08;23.60;65.50
41437;DHT22;27178;49.460;10.850;2022-08-25T07:02:39;23.60;65.30
41437;DHT22;27178;49.460;10.850;2022-08-25T07:05:08;23.60;65.50
41437;DHT22;27178;49.460;10.850;2022-08-25T07:07:47;23.60;65.50
41437;DHT22;27178;49.460;10.850;2022-08-25T07:10:16;23.60;65.60
41437;DHT22;27178;49.460;10.850;2022-08-25T07:12:45;23.70;65.70
41437;DHT22;27178;49.460;10.850;2022-08-25T07:15:13;23.70;65.10
41437;DHT22;27178;49.460;10.850;2022-08-25T07:17:48;23.70;64.60
41437;DHT22;27178;49.460;10.850;2022-08-25T07:20:17;23.70;64.40
41437;DHT22;27178;49.460;10.850;2022-08-25T07:22:46;23.80;62.90
41437;DHT22;27178;49.460;10.850;2022-08-25T07:25:14;23.80;62.10
41437;DHT22;27178;49.460;10.850;2022-08-25T07:27:43;23.70;61.40
41437;DHT22;27178;49.460;10.850;2022-08-25T07:30:12;23.80;60.90
41437;DHT22;27178;49.460;10.850;2022-08-25T07:32:41;23.80;60.60
41437;DHT22;27178;49.460;10.850;2022-08-25T07:35:11;23.80;60.20
41437;DHT22;27178;49.460;10.850;2022-08-25T07:37:47;23.80;60.00
41437;DHT22;27178;49.460;10.850;2022-08-25T07:40:18;23.80;60.00
41437;DHT22;27178;49.460;10.850;2022-08-25T07:42:49;23.80;59.70
41437;DHT22;27178;49.460;10.850;2022-08-25T07:45:19;23.80;59.60
41437;DHT22;27178;49.460;10.850;2022-08-25T07:47:51;23.90;59.50
41437;DHT22;27178;49.460;10.850;2022-08-25T07:50:21;23.90;59.30
41437;DHT22;27178;49.460;10.850;2022-08-25T07:52:49;23.90;59.10
41437;DHT22;27178;49.460;10.850;2022-08-25T07:55:21;23.90;59.00
41437;DHT22;27178;49.460;10.850;2022-08-25T07:57:50;23.90;58.80
41437;DHT22;27178;49.460;10.850;2022-08-25T08:00:23;24.70;60.10
41437;DHT22;27178;49.460;10.850;2022-08-25T08:02:54;24.00;59.00
41437;DHT22;27178;49.460;10.850;2022-08-25T08:05:25;24.00;59.30
41437;DHT22;27178;49.460;10.850;2022-08-25T08:07:54;24.10;59.10
41437;DHT22;27178;49.460;10.850;2022-08-25T08:10:24;24.10;58.80
41437;DHT22;27178;49.460;10.850;2022-08-25T08:13:12;24.10;58.70
41437;DHT22;27178;49.460;10.850;2022-08-25T08:15:44;24.20;59.00
41437;DHT22;27178;49.460;10.850;2022-08-25T08:18:13;24.20;59.10
41437;DHT22;27178;49.460;10.850;2022-08-25T08:20:44;24.30;59.90
41437;DHT22;27178;49.460;10.850;2022-08-25T08:23:13;24.30;58.80
41437;DHT22;27178;49.460;10.850;2022-08-25T08:25:42;24.30;59.10
41437;DHT22;27178;49.460;10.850;2022-08-25T08:28:13;24.40;58.80
41437;DHT22;27178;49.460;10.850;2022-08-25T08:30:41;24.40;58.60
41437;DHT22;27178;49.460;10.850;2022-08-25T08:33:21;24.50;58.40
41437;DHT22;27178;49.460;10.850;2022-08-25T08:35:56;24.50;57.90
41437;DHT22;27178;49.460;10.850;2022-08-25T08:38:32;24.50;58.00
41437;DHT22;27178;49.460;10.850;2022-08-25T08:41:20;24.60;58.10
41437;DHT22;27178;49.460;10.850;2022-08-25T08:44:40;24.60;57.70
41437;DHT22;27178;49.460;10.850;2022-08-25T08:47:15;24.60;58.10
41437;DHT22;27178;49.460;10.850;2022-08-25T08:49:54;24.70;57.60
41437;DHT22;27178;49.460;10.850;2022-08-25T08:52:35;24.70;57.40
41437;DHT22;27178;49.460;10.850;2022-08-25T08:55:10;24.80;58.20
41437;DHT22;27178;49.460;10.850;2022-08-25T08:57:45;24.90;58.70
41437;DHT22;27178;49.460;10.850;2022-08-25T09:00:15;24.80;58.40
41437;DHT22;27178;49.460;10.850;2022-08-25T09:02:50;24.90;57.80
41437;DHT22;27178;49.460;10.850;2022-08-25T09:05:21;24.90;57.40
41437;DHT22;27178;49.460;10.850;2022-08-25T09:07:56;24.90;57.70
41437;DHT22;27178;49.460;10.850;2022-08-25T09:10:38;25.00;57.00
41437;DHT22;27178;49.460;10.850;2022-08-25T09:13:14;25.00;57.40
41437;DHT22;27178;49.460;10.850;2022-08-25T09:15:55;25.10;56.90
41437;DHT22;27178;49.460;10.850;2022-08-25T09:19:09;25.10;57.20
41437;DHT22;27178;49.460;10.850;2022-08-25T09:21:53;25.20;57.40
41437;DHT22;27178;49.460;10.850;2022-08-25T09:24:46;25.30;56.20
41437;DHT22;27178;49.460;10.850;2022-08-25T09:27:24;25.30;56.20
41437;DHT22;27178;49.460;10.850;2022-08-25T09:30:00;25.40;56.00
41437;DHT22;27178;49.460;10.850;2022-08-25T09:32:34;25.40;56.90
41437;DHT22;27178;49.460;10.850;2022-08-25T09:35:07;25.50;56.40
41437;DHT22;27178;49.460;10.850;2022-08-25T09:37:39;25.50;56.40
41437;DHT22;27178;49.460;10.850;2022-08-25T09:40:10;25.60;57.10
41437;DHT22;27178;49.460;10.850;2022-08-25T09:42:47;25.70;56.10
41437;DHT22;27178;49.460;10.850;2022-08-25T09:45:16;25.70;57.20
41437;DHT22;27178;49.460;10.850;2022-08-25T09:47:57;25.80;56.30
41437;DHT22;27178;49.460;10.850;2022-08-25T09:50:30;25.90;56.70
41437;DHT22;27178;49.460;10.850;2022-08-25T09:53:11;25.90;56.50
41437;DHT22;27178;49.460;10.850;2022-08-25T09:55:46;26.00;55.70
41437;DHT22;27178;49.460;10.850;2022-08-25T09:58:26;26.10;55.20
41437;DHT22;27178;49.460;10.850;2022-08-25T10:01:11;26.20;55.10
41437;DHT22;27178;49.460;10.850;2022-08-25T10:03:54;26.20;54.80
41437;DHT22;27178;49.460;10.850;2022-08-25T10:06:25;26.30;55.30
41437;DHT22;27178;49.460;10.850;2022-08-25T10:08:58;26.40;55.30
41437;DHT22;27178;49.460;10.850;2022-08-25T10:11:37;26.40;54.80
41437;DHT22;27178;49.460;10.850;2022-08-25T10:14:17;26.40;54.90
41437;DHT22;27178;49.460;10.850;2022-08-25T10:16:45;26.50;54.60
41437;DHT22;27178;49.460;10.850;2022-08-25T10:19:23;26.50;55.00
41437;DHT22;27178;49.460;10.850;2022-08-25T10:22:04;26.50;55.50
41437;DHT22;27178;49.460;10.850;2022-08-25T10:24:34;26.60;54.40
41437;DHT22;27178;49.460;10.850;2022-08-25T10:27:17;26.70;54.80
41437;DHT22;27178;49.460;10.850;2022-08-25T10:30:13;26.70;54.30
41437;DHT22;27178;49.460;10.850;2022-08-25T10:33:03;26.80;54.00
41437;DHT22;27178;49.460;10.850;2022-08-25T10:35:47;26.90;55.00
41437;DHT22;27178;49.460;10.850;2022-08-25T10:38:32;26.90;54.00
41437;DHT22;27178;49.460;10.850;2022-08-25T10:41:14;27.00;53.70
41437;DHT22;27178;49.460;10.850;2022-08-25T10:43:56;27.00;53.70
41437;DHT22;27178;49.460;10.850;2022-08-25T10:46:31;27.10;54.00
41437;DHT22;27178;49.460;10.850;2022-08-25T10:49:07;27.20;53.50
41437;DHT22;27178;49.460;10.850;2022-08-25T10:51:51;27.30;53.60
41437;DHT22;27178;49.460;10.850;2022-08-25T10:54:31;27.40;53.50
41437;DHT22;27178;49.460;10.850;2022-08-25T10:57:11;27.50;54.60
41437;DHT22;27178;49.460;10.850;2022-08-25T11:00:00;27.60;53.90
41437;DHT22;27178;49.460;10.850;2022-08-25T11:05:41;27.90;52.90
41437;DHT22;27178;49.460;10.850;2022-08-25T11:08:14;27.90;52.90
41437;DHT22;27178;49.460;10.850;2022-08-25T11:10:46;28.00;52.60
41437;DHT22;27178;49.460;10.850;2022-08-25T11:13:24;28.00;52.40
41437;DHT22;27178;49.460;10.850;2022-08-25T11:16:00;28.00;52.50
41437;DHT22;27178;49.460;10.850;2022-08-25T11:18:53;28.00;51.90
41437;DHT22;27178;49.460;10.850;2022-08-25T11:21:26;28.00;51.80
41437;DHT22;27178;49.460;10.850;2022-08-25T11:24:07;28.00;52.00
41437;DHT22;27178;49.460;10.850;2022-08-25T11:26:43;28.00;53.10
41437;DHT22;27178;49.460;10.850;2022-08-25T11:29:16;28.10;52.30
41437;DHT22;27178;49.460;10.850;2022-08-25T11:31:49;28.00;52.60
41437;DHT22;27178;49.460;10.850;2022-08-25T11:34:20;28.10;52.80
41437;DHT22;27178;49.460;10.850;2022-08-25T11:36:51;28.10;53.40
41437;DHT22;27178;49.460;10.850;2022-08-25T11:39:31;28.20;54.20
41437;DHT22;27178;49.460;10.850;2022-08-25T11:42:14;28.40;53.90
41437;DHT22;27178;49.460;10.850;2022-08-25T11:44:57;28.50;54.50
41437;DHT22;27178;49.460;10.850;2022-08-25T11:47:54;28.70;54.20
41437;DHT22;27178;49.460;10.850;2022-08-25T11:50:29;28.90;54.40
41437;DHT22;27178;49.460;10.850;2022-08-25T11:53:18;29.10;54.10
41437;DHT22;27178;49.460;10.850;2022-08-25T11:55:55;29.30;53.70
41437;DHT22;27178;49.460;10.850;2022-08-25T11:58:47;29.40;53.70
41437;DHT22;27178;49.460;10.850;2022-08-25T12:04:38;29.70;53.60
41437;DHT22;27178;49.460;10.850;2022-08-25T12:07:25;29.90;53.50
41437;DHT22;27178;49.460;10.850;2022-08-25T12:10:19;30.10;53.10
41437;DHT22;27178;49.460;10.850;2022-08-25T12:13:04;30.20;53.00
41437;DHT22;27178;49.460;10.850;2022-08-25T12:15:58;30.20;52.50
41437;DHT22;27178;49.460;10.850;2022-08-25T12:18:41;30.30;52.40
41437;DHT22;27178;49.460;10.850;2022-08-25T12:24:10;30.40;52.40
41437;DHT22;27178;49.460;10.850;2022-08-25T12:26:46;30.50;52.30
41437;DHT22;27178;49.460;10.850;2022-08-25T12:29:25;30.60;52.20
41437;DHT22;27178;49.460;10.850;2022-08-25T12:32:09;30.70;52.10
41437;DHT22;27178;49.460;10.850;2022-08-25T12:35:01;30.70;51.80
41437;DHT22;27178;49.460;10.850;2022-08-25T12:37:59;30.80;51.80
41437;DHT22;27178;49.460;10.850;2022-08-25T12:40:32;30.80;51.60
41437;DHT22;27178;49.460;10.850;2022-08-25T12:43:09;30.70;51.40
41437;DHT22;27178;49.460;10.850;2022-08-25T12:45:43;30.70;51.50
41437;DHT22;27178;49.460;10.850;2022-08-25T12:51:51;30.70;51.50
41437;DHT22;27178;49.460;10.850;2022-08-25T12:54:37;30.70;51.60
41437;DHT22;27178;49.460;10.850;2022-08-25T12:57:36;30.60;51.50
41437;DHT22;27178;49.460;10.850;2022-08-25T13:00:14;30.60;51.80
41437;DHT22;27178;49.460;10.850;2022-08-25T13:03:12;30.70;51.90
41437;DHT22;27178;49.460;10.850;2022-08-25T13:06:07;30.70;52.30
41437;DHT22;27178;49.460;10.850;2022-08-25T13:08:57;30.70;51.40
41437;DHT22;27178;49.460;10.850;2022-08-25T13:11:38;30.70;51.40
41437;DHT22;27178;49.460;10.850;2022-08-25T13:14:13;30.70;51.40
41437;DHT22;27178;49.460;10.850;2022-08-25T13:16:52;30.80;51.60
41437;DHT22;27178;49.460;10.850;2022-08-25T13:19:21;30.80;51.40
41437;DHT22;27178;49.460;10.850;2022-08-25T13:21:50;30.90;51.60
41437;DHT22;27178;49.460;10.850;2022-08-25T13:24:24;31.00;51.40
41437;DHT22;27178;49.460;10.850;2022-08-25T13:26:56;31.10;51.10
41437;DHT22;27178;49.460;10.850;2022-08-25T13:29:28;31.20;51.00
41437;DHT22;27178;49.460;10.850;2022-08-25T13:32:10;31.30;50.80
41437;DHT22;27178;49.460;10.850;2022-08-25T13:34:41;31.30;50.60
41437;DHT22;27178;49.460;10.850;2022-08-25T13:37:16;31.30;50.60
41437;DHT22;27178;49.460;10.850;2022-08-25T13:40:11;31.40;50.60
41437;DHT22;27178;49.460;10.850;2022-08-25T13:42:45;31.50;50.30
41437;DHT22;27178;49.460;10.850;2022-08-25T13:45:23;31.60;50.70
41437;DHT22;27178;49.460;10.850;2022-08-25T13:47:52;31.80;50.40
41437;DHT22;27178;49.460;10.850;2022-08-25T13:50:41;31.90;50.20
41437;DHT22;27178;49.460;10.850;2022-08-25T13:53:22;32.10;50.00
41437;DHT22;27178;49.460;10.850;2022-08-25T13:55:53;32.20;49.50
41437;DHT22;27178;49.460;10.850;2022-08-25T13:58:26;32.20;49.30
41437;DHT22;27178;49.460;10.850;2022-08-25T14:01:14;32.30;48.70
41437;DHT22;27178;49.460;10.850;2022-08-25T14:04:25;32.30;48.80
41437;DHT22;27178;49.460;10.850;2022-08-25T14:07:22;32.40;48.70
41437;DHT22;27178;49.460;10.850;2022-08-25T14:10:02;32.40;48.60
41437;DHT22;27178;49.460;10.850;2022-08-25T14:12:38;32.60;48.90
41437;DHT22;27178;49.460;10.850;2022-08-25T14:15:14;32.60;48.70
41437;DHT22;27178;49.460;10.850;2022-08-25T14:18:00;32.70;48.30
41437;DHT22;27178;49.460;10.850;2022-08-25T14:20:31;32.80;48.00
41437;DHT22;27178;49.460;10.850;2022-08-25T14:23:06;32.80;48.00
41437;DHT22;27178;49.460;10.850;2022-08-25T14:25:36;32.80;47.80
41437;DHT22;27178;49.460;10.850;2022-08-25T14:28:13;32.80;47.90
41437;DHT22;27178;49.460;10.850;2022-08-25T14:30:45;32.70;47.60
41437;DHT22;27178;49.460;10.850;2022-08-25T14:33:20;32.70;47.40
41437;DHT22;27178;49.460;10.850;2022-08-25T14:35:52;32.60;47.40
41437;DHT22;27178;49.460;10.850;2022-08-25T14:38:21;32.50;47.70
41437;DHT22;27178;49.460;10.850;2022-08-25T14:40:50;32.50;48.00
41437;DHT22;27178;49.460;10.850;2022-08-25T14:43:19;32.40;48.00
41437;DHT22;27178;49.460;10.850;2022-08-25T14:45:59;32.40;48.10
41437;DHT22;27178;49.460;10.850;2022-08-25T14:48:31;32.40;47.90
41437;DHT22;27178;49.460;10.850;2022-08-25T14:51:04;32.40;47.90
41437;DHT22;27178;49.460;10.850;2022-08-25T14:53:32;32.30;48.00
41437;DHT22;27178;49.460;10.850;2022-08-25T14:56:01;32.30;48.90
41437;DHT22;27178;49.460;10.850;2022-08-25T14:58:36;32.30;48.10
41437;DHT22;27178;49.460;10.850;2022-08-25T15:01:22;32.30;48.10
41437;DHT22;27178;49.460;10.850;2022-08-25T15:04:00;32.30;48.20
41437;DHT22;27178;49.460;10.850;2022-08-25T15:06:29;32.30;48.40
41437;DHT22;27178;49.460;10.850;2022-08-25T15:08:58;32.20;48.30
41437;DHT22;27178;49.460;10.850;2022-08-25T15:11:39;32.20;48.20
41437;DHT22;27178;49.460;10.850;2022-08-25T15:14:09;32.30;48.20
41437;DHT22;27178;49.460;10.850;2022-08-25T15:16:43;32.20;48.30
41437;DHT22;27178;49.460;10.850;2022-08-25T15:19:14;32.20;48.20
41437;DHT22;27178;49.460;10.850;2022-08-25T15:21:44;32.30;48.20
41437;DHT22;27178;49.460;10.850;2022-08-25T15:24:13;32.30;48.20
41437;DHT22;27178;49.460;10.850;2022-08-25T15:26:46;32.40;48.20
41437;DHT22;27178;49.460;10.850;2022-08-25T15:29:16;32.20;48.10
41437;DHT22;27178;49.460;10.850;2022-08-25T15:31:47;32.20;48.20
41437;DHT22;27178;49.460;10.850;2022-08-25T15:34:16;32.30;48.20
41437;DHT22;27178;49.460;10.850;2022-08-25T15:36:45;32.30;48.00
41437;DHT22;27178;49.460;10.850;2022-08-25T15:39:14;32.40;48.20
41437;DHT22;27178;49.460;10.850;2022-08-25T15:41:45;32.40;48.30
41437;DHT22;27178;49.460;10.850;2022-08-25T15:44:15;32.40;48.20
41437;DHT22;27178;49.460;10.850;2022-08-25T15:46:44;32.40;48.10
41437;DHT22;27178;49.460;10.850;2022-08-25T15:49:17;32.40;48.10
41437;DHT22;27178;49.460;10.850;2022-08-25T15:51:50;32.50;47.90
41437;DHT22;27178;49.460;10.850;2022-08-25T15:54:21;32.50;47.90
41437;DHT22;27178;49.460;10.850;2022-08-25T15:56:53;32.60;47.90
41437;DHT22;27178;49.460;10.850;2022-08-25T15:59:22;32.60;47.90
41437;DHT22;27178;49.460;10.850;2022-08-25T16:01:53;32.60;47.90
41437;DHT22;27178;49.460;10.850;2022-08-25T16:04:25;32.70;47.80
41437;DHT22;27178;49.460;10.850;2022-08-25T16:06:54;32.70;47.80
41437;DHT22;27178;49.460;10.850;2022-08-25T16:09:24;32.80;47.50